createdAt,value
2023-03-20T08:25:22.199Z,96939.75
2023-03-20T08:26:25.300Z,96945.38
2023-03-20T08:27:26.673Z,96945.38
2023-03-20T08:28:45.879Z,96948.16
2023-03-20T08:29:47.877Z,96936.81
2023-03-20T08:30:49.668Z,96931.75
2023-03-20T08:31:51.084Z,96941.91
2023-03-20T08:32:52.646Z,96936.56
2023-03-20T08:33:55.650Z,96939.19
2023-03-20T08:34:57.058Z,96931.41
2023-03-20T08:35:59.339Z,96934.50
2023-03-20T08:37:03.441Z,96938.47
2023-03-20T08:38:04.949Z,96937.56
2023-03-20T08:39:09.805Z,96936.03
2023-03-20T08:40:11.950Z,96945.59
2023-03-20T08:41:13.420Z,96941.88
2023-03-20T08:42:15.013Z,96927.31
2023-03-20T08:43:16.861Z,96935.19
2023-03-20T08:44:18.231Z,96933.56
2023-03-20T08:45:19.679Z,96940.72
2023-03-20T08:46:21.168Z,96940.00
2023-03-20T08:47:22.634Z,96938.53
2023-03-20T08:48:24.082Z,96935.03
2023-03-20T08:49:25.532Z,96937.41
2023-03-20T08:50:27.191Z,96941.94
2023-03-20T08:51:28.565Z,96946.41
2023-03-20T08:52:29.976Z,96938.44
2023-03-20T08:53:31.398Z,96945.53
2023-03-20T08:54:33.876Z,96944.13
2023-03-20T08:55:35.451Z,96937.94
2023-03-20T08:56:37.207Z,96939.13
2023-03-20T08:57:38.949Z,96952.34
2023-03-20T08:58:40.294Z,96953.94
2023-03-20T08:59:41.795Z,96952.53
2023-03-20T09:00:43.466Z,96949.69
2023-03-20T09:01:50.189Z,96950.28
2023-03-20T09:02:52.240Z,96948.53
2023-03-20T09:03:53.624Z,96948.47
2023-03-20T09:04:55.210Z,96952.97
2023-03-20T09:05:56.628Z,96951.53
2023-03-20T09:06:58.201Z,96960.91
2023-03-20T09:08:00.446Z,96948.81
2023-03-20T09:09:01.782Z,96954.81
2023-03-20T09:10:04.427Z,96951.22
2023-03-20T09:11:06.999Z,96960.75
2023-03-20T09:12:08.451Z,96964.25
2023-03-20T09:13:26.252Z,96959.91
2023-03-20T09:14:29.233Z,96960.19
2023-03-20T09:15:30.631Z,96956.66
2023-03-20T09:16:32.365Z,96957.84
2023-03-20T09:17:33.938Z,96959.16
2023-03-20T09:18:35.927Z,96951.56
2023-03-20T09:19:40.086Z,96949.94
2023-03-20T09:20:41.523Z,96959.06
2023-03-20T09:21:43.106Z,96951.53
2023-03-20T09:22:45.386Z,96954.28
2023-03-20T09:23:47.497Z,96958.06
2023-03-20T09:24:48.927Z,96960.94
2023-03-20T09:25:50.397Z,96961.44
2023-03-20T09:26:52.244Z,96959.41
2023-03-20T09:27:56.975Z,96959.66
2023-03-20T09:28:58.487Z,96954.25
2023-03-20T09:29:59.873Z,96957.94
2023-03-20T09:31:02.407Z,96959.00
2023-03-20T09:32:03.897Z,96960.41
2023-03-20T09:33:05.702Z,96962.16
2023-03-20T09:34:07.264Z,96956.63
2023-03-20T09:35:09.038Z,96959.72
2023-03-20T09:36:11.738Z,96958.63
2023-03-20T09:37:13.295Z,96965.03
2023-03-20T09:38:15.531Z,96962.41
2023-03-20T09:39:17.061Z,96958.13
2023-03-20T09:40:31.543Z,96963.78
2023-03-20T09:41:52.903Z,96960.22
2023-03-20T09:43:34.885Z,96967.25
2023-03-20T09:44:46.215Z,96966.03
2023-03-20T09:46:14.966Z,96980.13
2023-03-20T09:47:32.078Z,96962.16
2023-03-20T09:48:54.613Z,96968.06
2023-03-20T09:50:25.191Z,96972.34
2023-03-20T09:51:42.721Z,96975.44
2023-03-20T09:52:53.858Z,96967.47
2023-03-20T09:54:01.411Z,96975.38
2023-03-20T09:55:12.884Z,96972.66
2023-03-20T09:56:20.166Z,96972.75
2023-03-20T09:57:45.375Z,96972.19
2023-03-20T09:58:58.348Z,96974.25
2023-03-20T10:00:07.400Z,96966.97
2023-03-20T10:01:15.365Z,96971.53
2023-03-20T10:02:28.189Z,96925.72
2023-03-20T10:03:42.455Z,96960.63
2023-03-20T10:04:47.155Z,96972.22
2023-03-20T10:05:56.705Z,96971.81
2023-03-20T10:06:58.210Z,96971.28
2023-03-20T10:08:03.076Z,96974.84
2023-03-20T10:09:17.694Z,96973.88
2023-03-20T10:10:22.649Z,96981.59
2023-03-20T10:11:49.054Z,96977.00
2023-03-20T10:13:02.065Z,96967.19
2023-03-20T10:14:24.257Z,96972.97
2023-03-20T10:16:01.825Z,96978.78
2023-03-20T10:17:28.491Z,96975.75
2023-03-20T10:18:34.405Z,96976.47
2023-03-20T10:19:45.424Z,96976.03
2023-03-20T10:21:13.410Z,96979.72
2023-03-20T10:22:22.028Z,96979.69
2023-03-20T10:23:30.853Z,96982.75
2023-03-20T10:24:36.270Z,96976.44
2023-03-20T10:25:46.315Z,96986.72
2023-03-20T10:26:52.301Z,96983.97
2023-03-20T10:28:05.975Z,96986.06
2023-03-20T10:29:26.403Z,96988.47
2023-03-20T10:30:40.218Z,96983.44
2023-03-20T10:31:51.177Z,96982.53
2023-03-20T10:33:00.753Z,96979.72
2023-03-20T10:34:17.373Z,96979.66
2023-03-20T10:35:59.339Z,96974.13
2023-03-20T10:37:14.856Z,96973.72
2023-03-20T10:38:44.075Z,96973.63
2023-03-20T10:40:11.330Z,96974.34
2023-03-20T10:41:18.635Z,96971.75
2023-03-20T10:42:28.378Z,96973.59
2023-03-20T10:43:37.407Z,96971.91
2023-03-20T10:44:53.411Z,96966.44
2023-03-20T10:46:19.313Z,96972.69
2023-03-20T10:47:24.410Z,96963.84
2023-03-20T10:48:41.083Z,96964.22
2023-03-20T10:50:00.354Z,96966.69
2023-03-20T10:51:03.897Z,96961.47
2023-03-20T10:52:31.030Z,96967.34
2023-03-20T10:53:41.397Z,96961.41
2023-03-20T10:54:48.382Z,96962.53
2023-03-20T10:55:50.117Z,96963.09
2023-03-20T10:56:55.800Z,96963.38
2023-03-20T10:58:13.998Z,96962.25
2023-03-20T10:59:28.691Z,96964.63
2023-03-20T11:00:30.125Z,96950.34
2023-03-20T11:01:33.326Z,96955.16
2023-03-20T11:02:37.254Z,96951.41
2023-03-20T11:03:39.924Z,96955.25
2023-03-20T11:04:41.913Z,96955.56
2023-03-20T11:05:43.346Z,96959.72
2023-03-20T11:07:07.897Z,96950.53
2023-03-20T11:08:13.674Z,96946.84
2023-03-20T11:09:19.290Z,96958.97
2023-03-20T11:10:20.949Z,96952.13
2023-03-20T11:11:28.105Z,96952.84
2023-03-20T11:12:33.471Z,96959.34
2023-03-20T11:13:36.594Z,96966.72
2023-03-20T11:14:39.809Z,96955.69
2023-03-20T11:15:41.445Z,96957.16
2023-03-20T11:16:42.951Z,96948.09
2023-03-20T11:17:51.395Z,96962.13
2023-03-20T11:18:53.986Z,96957.13
2023-03-20T11:20:04.117Z,96954.34
2023-03-20T11:21:14.030Z,96956.38
2023-03-20T11:22:21.207Z,96960.03
2023-03-20T11:23:35.782Z,96957.63
2023-03-20T11:24:41.872Z,96964.19
2023-03-20T11:25:51.970Z,96955.19
2023-03-20T11:26:55.375Z,96951.25
2023-03-20T11:27:58.183Z,96952.72
2023-03-20T11:29:00.478Z,96950.25
2023-03-20T11:30:04.005Z,96958.78
2023-03-20T11:31:11.345Z,96953.94
2023-03-20T11:32:34.501Z,96945.16
2023-03-20T11:33:43.433Z,96952.75
2023-03-20T11:34:45.124Z,96948.25
2023-03-20T11:35:47.660Z,96949.38
2023-03-20T11:37:09.778Z,96953.59
2023-03-20T11:38:21.144Z,96956.56
2023-03-20T11:39:26.409Z,96942.72
2023-03-20T11:40:32.634Z,96945.03
2023-03-20T11:41:34.107Z,96946.09
2023-03-20T11:42:37.182Z,96948.09
2023-03-20T11:43:41.487Z,96948.59
2023-03-20T11:44:42.828Z,96953.16
2023-03-20T11:45:47.971Z,96948.44
2023-03-20T11:47:03.607Z,96953.56
2023-03-20T11:48:12.131Z,96951.22
2023-03-20T11:49:22.706Z,96949.38
2023-03-20T11:50:29.763Z,96944.97
2023-03-20T11:51:32.110Z,96948.41
2023-03-20T11:52:36.749Z,96945.84
2023-03-20T11:53:48.121Z,96942.06
2023-03-20T11:54:52.853Z,96938.41
2023-03-20T11:56:11.270Z,96943.81
2023-03-20T11:57:36.259Z,96945.00
2023-03-20T11:58:54.316Z,96938.38
2023-03-20T11:59:56.221Z,96934.56
2023-03-20T12:00:58.170Z,96938.25
2023-03-20T12:02:01.010Z,96939.94
2023-03-20T12:03:04.005Z,96937.03
2023-03-20T12:04:09.526Z,96935.88
2023-03-20T12:05:28.572Z,96930.34
2023-03-20T12:06:54.614Z,96946.44
2023-03-20T12:08:20.186Z,96940.72
2023-03-20T12:09:33.566Z,96940.59
2023-03-20T12:10:41.685Z,96935.47
2023-03-20T12:11:52.274Z,96937.16
2023-03-20T12:13:02.862Z,96939.66
2023-03-20T12:14:08.746Z,96943.69
2023-03-20T12:15:13.159Z,96939.25
2023-03-20T12:16:21.412Z,96945.13
2023-03-20T12:17:41.326Z,96949.28
2023-03-20T12:18:48.997Z,96931.28
2023-03-20T12:19:54.128Z,96928.44
2023-03-20T12:21:07.561Z,96937.22
2023-03-20T12:22:23.853Z,96932.31
2023-03-20T12:23:37.215Z,96928.47
2023-03-20T12:24:49.847Z,96927.16
2023-03-20T12:26:04.643Z,96930.69
2023-03-20T12:27:23.878Z,96930.97
2023-03-20T12:28:37.994Z,96929.94
2023-03-20T12:29:46.576Z,96926.53
2023-03-20T12:31:09.633Z,96926.56
2023-03-20T12:32:19.919Z,96929.00
2023-03-20T12:33:47.558Z,96923.91
2023-03-20T12:34:56.534Z,96918.88
2023-03-20T12:35:58.628Z,96930.78
2023-03-20T12:37:00.418Z,96925.25
2023-03-20T12:38:02.607Z,96925.63
2023-03-20T12:39:10.150Z,96924.53
2023-03-20T12:40:17.448Z,96918.59
2023-03-20T12:41:31.208Z,96914.66
2023-03-20T12:42:51.241Z,96924.47
2023-03-20T12:44:15.831Z,96915.75
2023-03-20T12:45:21.987Z,96917.69
2023-03-20T12:46:44.264Z,96911.41
2023-03-20T12:48:02.298Z,96913.09
2023-03-20T12:49:12.929Z,96910.22
2023-03-20T12:50:33.436Z,96915.75
2023-03-20T12:52:00.119Z,96911.97
2023-03-20T12:53:20.049Z,96915.06
2023-03-20T12:54:32.929Z,96918.13
2023-03-20T12:55:51.642Z,96917.59
2023-03-20T12:57:20.576Z,96914.13
2023-03-20T12:59:06.821Z,96913.00
2023-03-20T13:00:24.042Z,96909.72
2023-03-20T13:01:32.687Z,96899.56
2023-03-20T13:02:39.746Z,96908.41
2023-03-20T13:04:18.785Z,96907.56
2023-03-20T13:06:06.561Z,96903.00
2023-03-20T13:07:19.051Z,96902.31
2023-03-20T13:08:37.091Z,96907.72
2023-03-20T13:10:16.312Z,96900.44
2023-03-20T13:11:31.091Z,96896.59
2023-03-20T13:12:52.117Z,96901.00
2023-03-20T13:14:04.134Z,96894.59
2023-03-20T13:15:23.971Z,96899.78
2023-03-20T13:16:53.260Z,96895.69
2023-03-20T13:17:54.636Z,96899.19
2023-03-20T13:19:11.491Z,96899.91
2023-03-20T13:20:29.212Z,96884.31
2023-03-20T13:21:44.768Z,96886.28
2023-03-20T13:23:09.521Z,96881.31
2023-03-20T13:24:32.703Z,96885.00
2023-03-20T13:25:53.854Z,96877.81
2023-03-20T13:27:07.507Z,96887.22
2023-03-20T13:28:45.956Z,96884.31
2023-03-20T13:30:24.193Z,96875.44
2023-03-20T13:31:42.261Z,96877.22
2023-03-20T13:33:17.695Z,96884.00
2023-03-20T13:34:54.661Z,96882.22
2023-03-20T13:36:05.057Z,96878.09
2023-03-20T13:37:23.506Z,96871.56
2023-03-20T13:38:33.324Z,96862.88
2023-03-20T13:39:44.515Z,96853.06
2023-03-20T13:40:47.902Z,96861.72
2023-03-20T13:41:49.538Z,96856.78
2023-03-20T13:43:00.106Z,96862.66
2023-03-20T13:44:04.202Z,96860.78
2023-03-20T13:45:22.050Z,96861.09
2023-03-20T13:47:13.274Z,96867.56
2023-03-20T13:48:36.096Z,96864.88
2023-03-20T13:49:42.111Z,96851.50
2023-03-20T13:50:51.743Z,96865.09
2023-03-20T13:52:09.816Z,96860.69
2023-03-20T13:53:22.320Z,96855.81
2023-03-20T13:54:45.312Z,96858.53
2023-03-20T13:55:58.782Z,96852.44
2023-03-20T13:57:12.309Z,96860.28
2023-03-20T13:58:40.047Z,96860.72
2023-03-20T13:59:56.343Z,96860.03
2023-03-20T14:01:22.273Z,96855.56
2023-03-20T14:02:26.688Z,96853.22
2023-03-20T14:03:40.961Z,96850.91
2023-03-20T14:04:42.863Z,96851.59
2023-03-20T14:05:45.548Z,96853.63
2023-03-20T14:06:53.521Z,96856.69
2023-03-20T14:07:57.842Z,96848.63
2023-03-20T14:09:01.009Z,96851.66
2023-03-20T14:10:20.827Z,96857.22
2023-03-20T14:11:22.173Z,96850.66
2023-03-20T14:12:27.392Z,96848.38
2023-03-20T14:13:30.930Z,96852.69
2023-03-20T14:14:41.926Z,96844.44
2023-03-20T14:15:55.361Z,96857.91
2023-03-20T14:17:19.059Z,96839.22
2023-03-20T14:18:23.328Z,96835.00
2023-03-20T14:19:25.512Z,96844.47
2023-03-20T14:20:31.827Z,96845.94
2023-03-20T14:21:34.730Z,96849.28
2023-03-20T14:22:40.827Z,96842.56
2023-03-20T14:23:47.371Z,96839.16
2023-03-20T14:25:03.752Z,96839.59
2023-03-20T14:26:09.469Z,96841.50
2023-03-20T14:27:19.363Z,96836.50
2023-03-20T14:28:28.041Z,96847.00
2023-03-20T14:29:29.389Z,96839.38
2023-03-20T14:30:30.806Z,96854.34
2023-03-20T14:31:39.158Z,96850.94
2023-03-20T14:33:15.381Z,96848.50
2023-03-20T14:34:24.631Z,96851.06
2023-03-20T14:35:28.123Z,96843.84
2023-03-20T14:36:43.721Z,96844.41
2023-03-20T14:38:20.155Z,96844.88
2023-03-20T14:39:48.384Z,96836.16
2023-03-20T14:40:49.695Z,96850.75
2023-03-20T14:42:03.161Z,96847.22
2023-03-20T14:43:17.117Z,96843.28
2023-03-20T14:44:27.772Z,96844.91
2023-03-20T14:45:43.237Z,96850.16
2023-03-20T14:47:20.552Z,96848.84
2023-03-20T14:48:33.885Z,96850.63
2023-03-20T14:49:50.589Z,96831.97
2023-03-20T14:51:24.296Z,96840.22
2023-03-20T14:52:37.750Z,96842.88
2023-03-20T14:53:40.954Z,96844.13
2023-03-20T14:54:42.436Z,96842.66
2023-03-20T14:55:56.026Z,96848.63
2023-03-20T14:57:09.758Z,96835.50
2023-03-20T14:58:40.573Z,96854.22
2023-03-20T14:59:42.252Z,96825.81
2023-03-20T15:00:46.639Z,96844.81
2023-03-20T15:01:54.160Z,96839.28
2023-03-20T15:03:18.819Z,96849.13
2023-03-20T15:04:29.193Z,96842.88
2023-03-20T15:05:36.433Z,96840.13
2023-03-20T15:07:03.722Z,96832.25
2023-03-20T15:08:09.153Z,96843.28
2023-03-20T15:09:11.832Z,96844.66
2023-03-20T15:10:13.330Z,96841.41
2023-03-20T15:11:16.158Z,96841.88
2023-03-20T15:12:23.635Z,96844.06
2023-03-20T15:13:26.990Z,96838.47
2023-03-20T15:14:31.679Z,96851.06
2023-03-20T15:15:34.075Z,96848.19
2023-03-20T15:16:37.436Z,96839.25
2023-03-20T15:17:43.816Z,96841.16
2023-03-20T15:18:50.947Z,96845.63
2023-03-20T15:20:01.948Z,96837.94
2023-03-20T15:21:03.695Z,96845.91
2023-03-20T15:22:16.646Z,96844.25
2023-03-20T15:23:18.286Z,96845.41
2023-03-20T15:24:21.353Z,96840.38
2023-03-20T15:25:36.585Z,96843.94
2023-03-20T15:26:37.979Z,96845.22
2023-03-20T15:27:40.266Z,96840.56
2023-03-20T15:28:43.722Z,96843.94
2023-03-20T15:29:51.619Z,96835.25
2023-03-20T15:30:57.110Z,96842.53
2023-03-20T15:32:13.391Z,96837.66
2023-03-20T15:33:20.100Z,96833.91
2023-03-20T15:34:26.581Z,96838.63
2023-03-20T15:35:28.075Z,96841.19
2023-03-20T15:36:34.760Z,96837.31
2023-03-20T15:37:36.825Z,96843.19
2023-03-20T15:38:39.074Z,96845.94
2023-03-20T15:39:46.786Z,96839.41
2023-03-20T15:40:51.535Z,96847.13
2023-03-20T15:41:57.025Z,96818.44
2023-03-20T15:43:17.483Z,96843.03
2023-03-20T15:44:36.792Z,96847.22
2023-03-20T15:45:40.570Z,96855.28
2023-03-20T15:47:08.457Z,96842.97
2023-03-20T15:48:18.961Z,96854.84
2023-03-20T15:49:21.846Z,96844.91
2023-03-20T15:50:23.280Z,96849.53
2023-03-20T15:51:27.599Z,96848.22
2023-03-20T15:52:41.722Z,96846.44
2023-03-20T15:53:46.270Z,96853.78
2023-03-20T15:54:49.364Z,96852.44
2023-03-20T15:56:01.868Z,96840.91
2023-03-20T15:57:20.200Z,96842.75
2023-03-20T15:58:21.696Z,96839.56
2023-03-20T15:59:27.454Z,96844.44
2023-03-20T16:00:35.293Z,96843.25
2023-03-20T16:01:36.956Z,96845.56
2023-03-20T16:02:38.675Z,96841.03
2023-03-20T16:03:41.093Z,96834.91
2023-03-20T16:04:49.868Z,96842.09
2023-03-20T16:05:52.620Z,96841.13
2023-03-20T16:06:58.256Z,96847.78
2023-03-20T16:08:24.388Z,96828.19
2023-03-20T16:09:27.390Z,96848.16
2023-03-20T16:10:34.173Z,96845.06
2023-03-20T16:11:39.507Z,96843.97
2023-03-20T16:12:47.356Z,96835.56
2023-03-20T16:13:51.437Z,96830.75
2023-03-20T16:14:53.735Z,96844.66
2023-03-20T16:15:55.551Z,96826.56
2023-03-20T16:16:59.351Z,96842.56
2023-03-20T16:18:04.534Z,96841.00
2023-03-20T16:19:07.607Z,96840.44
2023-03-20T16:20:14.780Z,96842.19
2023-03-20T16:21:24.795Z,96835.31
2023-03-20T16:22:33.290Z,96834.34
2023-03-20T16:23:44.507Z,96836.94
2023-03-20T16:24:49.973Z,96833.44
2023-03-20T16:25:56.671Z,96837.50
2023-03-20T16:26:58.459Z,96839.97
2023-03-20T16:28:00.603Z,96837.22
2023-03-20T16:29:02.854Z,96822.59
2023-03-20T16:30:14.723Z,96836.22
2023-03-20T16:31:20.362Z,96837.81
2023-03-20T16:32:41.589Z,96832.34
2023-03-20T16:33:44.048Z,96832.63
2023-03-20T16:34:50.436Z,96836.22
